sensor_id;sensor_type;location;lat;lon;timestamp;temperature;humidity
25923;DHT22;13725;51.170;4.442;2022-07-09T00:01:06;18.90;99.90
25923;DHT22;13725;51.170;4.442;2022-07-09T00:07:19;18.80;99.90
25923;DHT22;13725;51.170;4.442;2022-07-09T00:13:33;18.80;99.90
25923;DHT22;13725;51.170;4.442;2022-07-09T00:19:47;18.70;99.90
25923;DHT22;13725;51.170;4.442;2022-07-09T00:26:00;18.70;99.90
25923;DHT22;13725;51.170;4.442;2022-07-09T00:32:14;18.60;99.90
25923;DHT22;13725;51.170;4.442;2022-07-09T00:38:28;18.70;99.90
25923;DHT22;13725;51.170;4.442;2022-07-09T00:44:42;18.60;99.90
25923;DHT22;13725;51.170;4.442;2022-07-09T01:01:41;18.50;99.90
25923;DHT22;13725;51.170;4.442;2022-07-09T01:07:57;18.50;99.90
25923;DHT22;13725;51.170;4.442;2022-07-09T01:14:10;18.50;99.90
25923;DHT22;13725;51.170;4.442;2022-07-09T01:20:28;18.50;99.90
25923;DHT22;13725;51.170;4.442;2022-07-09T01:26:45;18.40;99.90
25923;DHT22;13725;51.170;4.442;2022-07-09T01:36:48;18.20;99.90
25923;DHT22;13725;51.170;4.442;2022-07-09T01:43:01;18.10;99.90
25923;DHT22;13725;51.170;4.442;2022-07-09T01:49:15;18.00;99.90
25923;DHT22;13725;51.170;4.442;2022-07-09T01:55:29;18.00;99.90
25923;DHT22;13725;51.170;4.442;2022-07-09T02:01:42;17.90;99.90
25923;DHT22;13725;51.170;4.442;2022-07-09T02:07:55;17.80;99.90
25923;DHT22;13725;51.170;4.442;2022-07-09T02:14:08;17.80;99.90
25923;DHT22;13725;51.170;4.442;2022-07-09T02:20:22;17.70;99.90
25923;DHT22;13725;51.170;4.442;2022-07-09T02:26:36;17.60;99.90
25923;DHT22;13725;51.170;4.442;2022-07-09T02:36:40;17.60;99.90
25923;DHT22;13725;51.170;4.442;2022-07-09T02:42:53;17.60;99.90
25923;DHT22;13725;51.170;4.442;2022-07-09T02:49:06;17.60;99.90
25923;DHT22;13725;51.170;4.442;2022-07-09T02:55:19;17.50;99.90
25923;DHT22;13725;51.170;4.442;2022-07-09T03:01:32;17.60;99.90
25923;DHT22;13725;51.170;4.442;2022-07-09T03:07:45;17.80;99.90
25923;DHT22;13725;51.170;4.442;2022-07-09T03:13:59;18.10;99.90
25923;DHT22;13725;51.170;4.442;2022-07-09T03:20:14;18.30;99.90
25923;DHT22;13725;51.170;4.442;2022-07-09T03:26:27;18.40;99.90
25923;DHT22;13725;51.170;4.442;2022-07-09T03:36:28;18.30;99.90
25923;DHT22;13725;51.170;4.442;2022-07-09T03:42:42;18.30;99.90
25923;DHT22;13725;51.170;4.442;2022-07-09T03:48:55;18.20;99.90
25923;DHT22;13725;51.170;4.442;2022-07-09T03:55:09;18.10;99.90
25923;DHT22;13725;51.170;4.442;2022-07-09T04:01:23;18.00;99.90
25923;DHT22;13725;51.170;4.442;2022-07-09T04:07:37;18.00;99.90
25923;DHT22;13725;51.170;4.442;2022-07-09T04:13:52;18.00;99.90
25923;DHT22;13725;51.170;4.442;2022-07-09T04:20:07;18.00;99.90
25923;DHT22;13725;51.170;4.442;2022-07-09T04:30:07;18.00;99.90
25923;DHT22;13725;51.170;4.442;2022-07-09T04:36:22;17.90;99.90
25923;DHT22;13725;51.170;4.442;2022-07-09T04:42:36;18.00;99.90
25923;DHT22;13725;51.170;4.442;2022-07-09T04:59:31;18.50;99.90
25923;DHT22;13725;51.170;4.442;2022-07-09T05:05:57;18.70;99.90
25923;DHT22;13725;51.170;4.442;2022-07-09T05:12:11;19.10;99.90
25923;DHT22;13725;51.170;4.442;2022-07-09T05:18:24;19.40;99.90
25923;DHT22;13725;51.170;4.442;2022-07-09T05:24:38;19.60;99.90
25923;DHT22;13725;51.170;4.442;2022-07-09T05:30:53;19.60;99.90
25923;DHT22;13725;51.170;4.442;2022-07-09T05:37:07;20.20;99.90
25923;DHT22;13725;51.170;4.442;2022-07-09T05:43:20;20.50;99.90
25923;DHT22;13725;51.170;4.442;2022-07-09T05:49:34;20.60;99.90
25923;DHT22;13725;51.170;4.442;2022-07-09T05:55:48;20.70;99.90
25923;DHT22;13725;51.170;4.442;2022-07-09T06:02:04;21.00;99.90
25923;DHT22;13725;51.170;4.442;2022-07-09T06:08:18;21.10;99.90
25923;DHT22;13725;51.170;4.442;2022-07-09T06:14:31;21.80;99.90
25923;DHT22;13725;51.170;4.442;2022-07-09T06:20:45;23.10;99.90
25923;DHT22;13725;51.170;4.442;2022-07-09T06:26:59;23.40;99.90
25923;DHT22;13725;51.170;4.442;2022-07-09T06:33:12;24.50;99.90
25923;DHT22;13725;51.170;4.442;2022-07-09T06:39:26;24.60;99.90
25923;DHT22;13725;51.170;4.442;2022-07-09T06:45:58;26.30;99.90
25923;DHT22;13725;51.170;4.442;2022-07-09T06:52:11;25.80;99.90
25923;DHT22;13725;51.170;4.442;2022-07-09T06:58:26;25.40;99.90
25923;DHT22;13725;51.170;4.442;2022-07-09T07:04:40;25.00;99.90
25923;DHT22;13725;51.170;4.442;2022-07-09T07:10:54;24.10;99.90
25923;DHT22;13725;51.170;4.442;2022-07-09T07:17:08;24.50;99.90
25923;DHT22;13725;51.170;4.442;2022-07-09T07:23:22;25.80;99.90
25923;DHT22;13725;51.170;4.442;2022-07-09T07:29:36;30.70;99.90
25923;DHT22;13725;51.170;4.442;2022-07-09T07:35:50;32.80;99.90
25923;DHT22;13725;51.170;4.442;2022-07-09T07:42:04;31.10;99.90
25923;DHT22;13725;51.170;4.442;2022-07-09T07:48:19;32.70;99.90
25923;DHT22;13725;51.170;4.442;2022-07-09T07:54:32;33.40;99.90
25923;DHT22;13725;51.170;4.442;2022-07-09T08:00:46;33.80;99.90
25923;DHT22;13725;51.170;4.442;2022-07-09T08:06:59;35.10;97.50
25923;DHT22;13725;51.170;4.442;2022-07-09T08:13:14;35.90;95.40
25923;DHT22;13725;51.170;4.442;2022-07-09T08:19:27;37.50;92.50
25923;DHT22;13725;51.170;4.442;2022-07-09T08:25:41;38.50;89.30
25923;DHT22;13725;51.170;4.442;2022-07-09T08:31:54;38.20;86.00
25923;DHT22;13725;51.170;4.442;2022-07-09T08:38:08;35.60;89.90
25923;DHT22;13725;51.170;4.442;2022-07-09T08:44:26;36.30;88.00
25923;DHT22;13725;51.170;4.442;2022-07-09T08:50:41;34.90;90.30
25923;DHT22;13725;51.170;4.442;2022-07-09T08:56:54;33.00;92.10
25923;DHT22;13725;51.170;4.442;2022-07-09T09:03:08;33.40;92.40
25923;DHT22;13725;51.170;4.442;2022-07-09T09:09:22;31.40;94.20
25923;DHT22;13725;51.170;4.442;2022-07-09T09:15:36;30.80;95.30
25923;DHT22;13725;51.170;4.442;2022-07-09T09:21:51;31.30;95.90
25923;DHT22;13725;51.170;4.442;2022-07-09T09:28:05;30.90;96.20
25923;DHT22;13725;51.170;4.442;2022-07-09T09:34:19;30.00;97.40
25923;DHT22;13725;51.170;4.442;2022-07-09T09:40:32;29.40;98.40
25923;DHT22;13725;51.170;4.442;2022-07-09T09:46:48;30.30;98.50
25923;DHT22;13725;51.170;4.442;2022-07-09T09:53:03;30.10;97.30
25923;DHT22;13725;51.170;4.442;2022-07-09T09:59:17;32.30;95.30
25923;DHT22;13725;51.170;4.442;2022-07-09T10:05:29;31.40;95.50
25923;DHT22;13725;51.170;4.442;2022-07-09T10:11:44;30.80;95.80
25923;DHT22;13725;51.170;4.442;2022-07-09T10:17:58;31.60;96.10
25923;DHT22;13725;51.170;4.442;2022-07-09T10:35:07;30.80;94.40
25923;DHT22;13725;51.170;4.442;2022-07-09T10:41:22;29.40;95.80
25923;DHT22;13725;51.170;4.442;2022-07-09T10:51:23;28.40;96.60
25923;DHT22;13725;51.170;4.442;2022-07-09T10:57:36;28.10;98.00
25923;DHT22;13725;51.170;4.442;2022-07-09T11:03:50;32.10;94.50
25923;DHT22;13725;51.170;4.442;2022-07-09T11:10:04;30.80;94.00
25923;DHT22;13725;51.170;4.442;2022-07-09T11:27:06;33.50;91.80
25923;DHT22;13725;51.170;4.442;2022-07-09T11:33:20;34.90;89.80
25923;DHT22;13725;51.170;4.442;2022-07-09T11:39:33;32.30;91.50
25923;DHT22;13725;51.170;4.442;2022-07-09T11:45:52;33.90;90.20
25923;DHT22;13725;51.170;4.442;2022-07-09T12:02:52;29.70;92.90
25923;DHT22;13725;51.170;4.442;2022-07-09T12:09:06;29.30;94.10
25923;DHT22;13725;51.170;4.442;2022-07-09T12:15:18;28.80;94.50
25923;DHT22;13725;51.170;4.442;2022-07-09T12:21:33;31.40;91.50
25923;DHT22;13725;51.170;4.442;2022-07-09T12:27:47;32.00;88.60
25923;DHT22;13725;51.170;4.442;2022-07-09T12:34:02;32.30;89.70
25923;DHT22;13725;51.170;4.442;2022-07-09T12:40:16;35.00;82.80
25923;DHT22;13725;51.170;4.442;2022-07-09T12:46:30;34.50;82.00
25923;DHT22;13725;51.170;4.442;2022-07-09T12:52:44;34.10;80.00
25923;DHT22;13725;51.170;4.442;2022-07-09T12:58:56;33.40;82.60
25923;DHT22;13725;51.170;4.442;2022-07-09T13:05:10;33.50;80.40
25923;DHT22;13725;51.170;4.442;2022-07-09T13:11:24;33.10;81.20
25923;DHT22;13725;51.170;4.442;2022-07-09T13:17:37;32.00;83.40
25923;DHT22;13725;51.170;4.442;2022-07-09T13:23:51;33.20;81.10
25923;DHT22;13725;51.170;4.442;2022-07-09T13:30:05;33.90;79.90
25923;DHT22;13725;51.170;4.442;2022-07-09T13:36:20;33.70;78.70
25923;DHT22;13725;51.170;4.442;2022-07-09T13:42:34;32.20;82.10
25923;DHT22;13725;51.170;4.442;2022-07-09T13:52:35;29.70;85.70
25923;DHT22;13725;51.170;4.442;2022-07-09T13:58:47;28.00;88.50
25923;DHT22;13725;51.170;4.442;2022-07-09T14:05:01;27.00;90.70
25923;DHT22;13725;51.170;4.442;2022-07-09T14:11:15;26.40;90.70
25923;DHT22;13725;51.170;4.442;2022-07-09T14:17:29;26.00;91.40
25923;DHT22;13725;51.170;4.442;2022-07-09T14:23:42;25.80;91.80
25923;DHT22;13725;51.170;4.442;2022-07-09T14:30:00;25.40;93.00
25923;DHT22;13725;51.170;4.442;2022-07-09T14:36:14;25.20;93.70
25923;DHT22;13725;51.170;4.442;2022-07-09T14:42:27;25.00;93.80
25923;DHT22;13725;51.170;4.442;2022-07-09T14:52:28;24.20;95.30
25923;DHT22;13725;51.170;4.442;2022-07-09T14:58:41;24.50;95.50
25923;DHT22;13725;51.170;4.442;2022-07-09T15:04:55;24.30;95.90
25923;DHT22;13725;51.170;4.442;2022-07-09T15:11:10;24.60;97.20
25923;DHT22;13725;51.170;4.442;2022-07-09T15:17:24;24.90;96.10
25923;DHT22;13725;51.170;4.442;2022-07-09T15:23:37;24.60;95.50
25923;DHT22;13725;51.170;4.442;2022-07-09T15:29:51;24.30;96.40
25923;DHT22;13725;51.170;4.442;2022-07-09T15:36:05;23.90;97.70
25923;DHT22;13725;51.170;4.442;2022-07-09T15:42:19;23.90;97.90
25923;DHT22;13725;51.170;4.442;2022-07-09T15:48:32;23.70;98.00
25923;DHT22;13725;51.170;4.442;2022-07-09T15:54:45;23.80;98.00
25923;DHT22;13725;51.170;4.442;2022-07-09T16:00:59;23.70;98.40
25923;DHT22;13725;51.170;4.442;2022-07-09T16:10:59;23.80;99.90
25923;DHT22;13725;51.170;4.442;2022-07-09T16:17:33;23.70;99.90
25923;DHT22;13725;51.170;4.442;2022-07-09T16:23:46;23.60;99.90
25923;DHT22;13725;51.170;4.442;2022-07-09T16:30:00;23.70;99.90
25923;DHT22;13725;51.170;4.442;2022-07-09T16:36:14;24.00;99.90
25923;DHT22;13725;51.170;4.442;2022-07-09T16:42:29;24.50;99.70
25923;DHT22;13725;51.170;4.442;2022-07-09T16:48:44;24.60;99.50
25923;DHT22;13725;51.170;4.442;2022-07-09T16:54:58;24.50;99.80
25923;DHT22;13725;51.170;4.442;2022-07-09T17:01:12;24.00;99.90
25923;DHT22;13725;51.170;4.442;2022-07-09T17:11:13;24.00;99.90
25923;DHT22;13725;51.170;4.442;2022-07-09T17:17:27;23.70;99.90
25923;DHT22;13725;51.170;4.442;2022-07-09T17:23:40;23.40;99.90
25923;DHT22;13725;51.170;4.442;2022-07-09T17:29:54;23.00;99.90
25923;DHT22;13725;51.170;4.442;2022-07-09T17:36:07;22.50;99.90
25923;DHT22;13725;51.170;4.442;2022-07-09T17:42:21;22.30;99.90
25923;DHT22;13725;51.170;4.442;2022-07-09T17:52:34;22.30;99.90
25923;DHT22;13725;51.170;4.442;2022-07-09T17:59:13;21.80;99.90
25923;DHT22;13725;51.170;4.442;2022-07-09T18:05:26;21.60;99.90
25923;DHT22;13725;51.170;4.442;2022-07-09T18:11:40;21.20;99.90
25923;DHT22;13725;51.170;4.442;2022-07-09T18:17:53;20.90;99.90
25923;DHT22;13725;51.170;4.442;2022-07-09T18:24:06;20.70;99.90
25923;DHT22;13725;51.170;4.442;2022-07-09T18:30:20;20.50;99.90
25923;DHT22;13725;51.170;4.442;2022-07-09T18:36:33;20.30;99.90
25923;DHT22;13725;51.170;4.442;2022-07-09T18:42:47;20.30;99.90
25923;DHT22;13725;51.170;4.442;2022-07-09T18:52:48;19.90;99.90
25923;DHT22;13725;51.170;4.442;2022-07-09T18:59:02;19.70;99.90
25923;DHT22;13725;51.170;4.442;2022-07-09T19:05:15;19.60;99.90
25923;DHT22;13725;51.170;4.442;2022-07-09T19:11:28;19.60;99.90
25923;DHT22;13725;51.170;4.442;2022-07-09T19:17:41;19.60;99.90
25923;DHT22;13725;51.170;4.442;2022-07-09T19:23:54;19.40;99.90
25923;DHT22;13725;51.170;4.442;2022-07-09T19:30:08;19.30;99.90
25923;DHT22;13725;51.170;4.442;2022-07-09T19:36:21;19.10;99.90
25923;DHT22;13725;51.170;4.442;2022-07-09T19:42:47;18.90;99.90
25923;DHT22;13725;51.170;4.442;2022-07-09T19:52:49;18.70;99.90
25923;DHT22;13725;51.170;4.442;2022-07-09T19:59:03;18.60;99.90
25923;DHT22;13725;51.170;4.442;2022-07-09T20:05:16;18.50;99.90
25923;DHT22;13725;51.170;4.442;2022-07-09T20:11:29;18.50;99.90
25923;DHT22;13725;51.170;4.442;2022-07-09T20:17:43;18.50;99.90
25923;DHT22;13725;51.170;4.442;2022-07-09T20:23:56;18.40;99.90
25923;DHT22;13725;51.170;4.442;2022-07-09T20:30:10;18.20;99.90
25923;DHT22;13725;51.170;4.442;2022-07-09T20:36:24;18.00;99.90
25923;DHT22;13725;51.170;4.442;2022-07-09T20:42:38;17.80;99.90
25923;DHT22;13725;51.170;4.442;2022-07-09T20:52:38;17.70;99.90
25923;DHT22;13725;51.170;4.442;2022-07-09T20:58:51;17.70;99.90
25923;DHT22;13725;51.170;4.442;2022-07-09T21:05:04;17.60;99.90
25923;DHT22;13725;51.170;4.442;2022-07-09T21:11:18;17.60;99.90
25923;DHT22;13725;51.170;4.442;2022-07-09T21:17:31;17.40;99.90
25923;DHT22;13725;51.170;4.442;2022-07-09T21:24:03;17.30;99.90
25923;DHT22;13725;51.170;4.442;2022-07-09T21:30:17;17.30;99.90
25923;DHT22;13725;51.170;4.442;2022-07-09T21:36:30;17.20;99.90
25923;DHT22;13725;51.170;4.442;2022-07-09T21:42:43;17.20;99.90
25923;DHT22;13725;51.170;4.442;2022-07-09T21:52:45;17.10;99.90
25923;DHT22;13725;51.170;4.442;2022-07-09T21:58:58;17.00;99.90
25923;DHT22;13725;51.170;4.442;2022-07-09T22:05:11;17.00;99.90
25923;DHT22;13725;51.170;4.442;2022-07-09T22:11:24;16.90;99.90
25923;DHT22;13725;51.170;4.442;2022-07-09T22:17:38;16.90;99.90
25923;DHT22;13725;51.170;4.442;2022-07-09T22:23:52;16.80;99.90
25923;DHT22;13725;51.170;4.442;2022-07-09T22:30:10;16.70;99.90
25923;DHT22;13725;51.170;4.442;2022-07-09T22:36:25;16.70;99.90
25923;DHT22;13725;51.170;4.442;2022-07-09T22:42:39;16.60;99.90
25923;DHT22;13725;51.170;4.442;2022-07-09T22:52:41;16.50;99.90
25923;DHT22;13725;51.170;4.442;2022-07-09T22:58:55;16.40;99.90
25923;DHT22;13725;51.170;4.442;2022-07-09T23:05:09;16.40;99.90
25923;DHT22;13725;51.170;4.442;2022-07-09T23:11:27;16.30;99.90
25923;DHT22;13725;51.170;4.442;2022-07-09T23:17:41;16.30;99.90
25923;DHT22;13725;51.170;4.442;2022-07-09T23:23:54;16.40;99.90
25923;DHT22;13725;51.170;4.442;2022-07-09T23:30:08;16.20;99.90
25923;DHT22;13725;51.170;4.442;2022-07-09T23:36:25;16.20;99.90
25923;DHT22;13725;51.170;4.442;2022-07-09T23:42:39;16.20;99.90
25923;DHT22;13725;51.170;4.442;2022-07-09T23:52:39;16.10;99.90
25923;DHT22;13725;51.170;4.442;2022-07-09T23:58:53;16.00;99.90
